sensor_id;sensor_type;location;lat;lon;timestamp;temperature;humidity
22526;DHT22;11429;50.842;4.386;2023-07-13T00:00:30;18.00;99.90
22526;DHT22;11429;50.842;4.386;2023-07-13T00:02:57;17.90;99.90
22526;DHT22;11429;50.842;4.386;2023-07-13T00:05:23;18.00;99.90
22526;DHT22;11429;50.842;4.386;2023-07-13T00:07:51;17.80;99.90
22526;DHT22;11429;50.842;4.386;2023-07-13T00:10:17;17.70;99.90
22526;DHT22;11429;50.842;4.386;2023-07-13T00:12:43;17.80;99.90
22526;DHT22;11429;50.842;4.386;2023-07-13T00:15:16;17.80;99.90
22526;DHT22;11429;50.842;4.386;2023-07-13T00:17:42;17.80;99.90
22526;DHT22;11429;50.842;4.386;2023-07-13T00:20:10;17.60;99.90
22526;DHT22;11429;50.842;4.386;2023-07-13T00:22:37;17.60;99.90
22526;DHT22;11429;50.842;4.386;2023-07-13T00:25:03;17.60;99.90
22526;DHT22;11429;50.842;4.386;2023-07-13T00:27:28;17.80;99.90
22526;DHT22;11429;50.842;4.386;2023-07-13T00:29:57;18.00;99.90
22526;DHT22;11429;50.842;4.386;2023-07-13T00:32:23;18.10;99.90
22526;DHT22;11429;50.842;4.386;2023-07-13T00:34:51;18.00;99.90
22526;DHT22;11429;50.842;4.386;2023-07-13T00:37:17;17.90;99.90
22526;DHT22;11429;50.842;4.386;2023-07-13T00:39:43;17.80;99.90
22526;DHT22;11429;50.842;4.386;2023-07-13T00:42:09;17.80;99.90
22526;DHT22;11429;50.842;4.386;2023-07-13T00:44:34;17.80;99.90
22526;DHT22;11429;50.842;4.386;2023-07-13T00:47:00;17.90;99.90
22526;DHT22;11429;50.842;4.386;2023-07-13T00:49:29;17.90;99.90
22526;DHT22;11429;50.842;4.386;2023-07-13T00:52:07;17.80;99.90
22526;DHT22;11429;50.842;4.386;2023-07-13T00:54:39;17.60;99.90
22526;DHT22;11429;50.842;4.386;2023-07-13T00:57:10;17.80;99.90
22526;DHT22;11429;50.842;4.386;2023-07-13T00:59:39;17.80;99.90
22526;DHT22;11429;50.842;4.386;2023-07-13T01:02:06;17.90;99.90
22526;DHT22;11429;50.842;4.386;2023-07-13T01:04:31;17.80;99.90
22526;DHT22;11429;50.842;4.386;2023-07-13T01:06:57;17.60;99.90
22526;DHT22;11429;50.842;4.386;2023-07-13T01:09:25;17.50;99.90
22526;DHT22;11429;50.842;4.386;2023-07-13T01:11:51;17.70;99.90
22526;DHT22;11429;50.842;4.386;2023-07-13T01:14:17;17.50;99.90
22526;DHT22;11429;50.842;4.386;2023-07-13T01:16:46;17.40;99.90
22526;DHT22;11429;50.842;4.386;2023-07-13T01:19:35;17.40;99.90
22526;DHT22;11429;50.842;4.386;2023-07-13T01:22:24;17.30;99.90
22526;DHT22;11429;50.842;4.386;2023-07-13T01:24:52;17.30;99.90
22526;DHT22;11429;50.842;4.386;2023-07-13T01:27:23;17.30;99.90
22526;DHT22;11429;50.842;4.386;2023-07-13T01:29:51;17.30;99.90
22526;DHT22;11429;50.842;4.386;2023-07-13T01:32:20;17.40;99.90
22526;DHT22;11429;50.842;4.386;2023-07-13T01:34:53;17.50;99.90
22526;DHT22;11429;50.842;4.386;2023-07-13T01:37:20;17.40;99.90
22526;DHT22;11429;50.842;4.386;2023-07-13T01:39:46;17.40;99.90
22526;DHT22;11429;50.842;4.386;2023-07-13T01:42:13;17.30;99.90
22526;DHT22;11429;50.842;4.386;2023-07-13T01:44:39;17.20;99.90
22526;DHT22;11429;50.842;4.386;2023-07-13T01:47:05;17.20;99.90
22526;DHT22;11429;50.842;4.386;2023-07-13T01:49:30;17.10;99.90
22526;DHT22;11429;50.842;4.386;2023-07-13T01:51:56;17.00;99.90
22526;DHT22;11429;50.842;4.386;2023-07-13T01:54:22;17.20;99.90
22526;DHT22;11429;50.842;4.386;2023-07-13T01:56:47;17.10;99.90
22526;DHT22;11429;50.842;4.386;2023-07-13T01:59:13;17.20;99.90
22526;DHT22;11429;50.842;4.386;2023-07-13T02:01:39;17.20;99.90
22526;DHT22;11429;50.842;4.386;2023-07-13T02:04:05;17.10;99.90
22526;DHT22;11429;50.842;4.386;2023-07-13T02:06:30;17.20;99.90
22526;DHT22;11429;50.842;4.386;2023-07-13T02:08:57;17.20;99.90
22526;DHT22;11429;50.842;4.386;2023-07-13T02:11:22;17.10;99.90
22526;DHT22;11429;50.842;4.386;2023-07-13T02:13:48;16.90;99.90
22526;DHT22;11429;50.842;4.386;2023-07-13T02:16:14;16.90;99.90
22526;DHT22;11429;50.842;4.386;2023-07-13T02:18:39;16.90;99.90
22526;DHT22;11429;50.842;4.386;2023-07-13T02:21:05;16.90;99.90
22526;DHT22;11429;50.842;4.386;2023-07-13T02:23:31;16.80;99.90
22526;DHT22;11429;50.842;4.386;2023-07-13T02:25:58;16.90;99.90
22526;DHT22;11429;50.842;4.386;2023-07-13T02:28:24;16.90;99.90
22526;DHT22;11429;50.842;4.386;2023-07-13T02:30:50;16.90;99.90
22526;DHT22;11429;50.842;4.386;2023-07-13T02:33:16;17.00;99.90
22526;DHT22;11429;50.842;4.386;2023-07-13T02:35:41;16.90;99.90
22526;DHT22;11429;50.842;4.386;2023-07-13T02:38:07;16.90;99.90
22526;DHT22;11429;50.842;4.386;2023-07-13T02:40:34;17.00;99.90
22526;DHT22;11429;50.842;4.386;2023-07-13T02:43:01;17.30;99.90
22526;DHT22;11429;50.842;4.386;2023-07-13T02:45:27;17.10;99.90
22526;DHT22;11429;50.842;4.386;2023-07-13T02:47:53;16.90;99.90
22526;DHT22;11429;50.842;4.386;2023-07-13T02:50:19;16.70;99.90
22526;DHT22;11429;50.842;4.386;2023-07-13T02:52:45;16.80;99.90
22526;DHT22;11429;50.842;4.386;2023-07-13T02:55:10;16.80;99.90
22526;DHT22;11429;50.842;4.386;2023-07-13T02:57:36;16.70;99.90
22526;DHT22;11429;50.842;4.386;2023-07-13T03:00:03;16.70;99.90
22526;DHT22;11429;50.842;4.386;2023-07-13T03:02:33;16.70;99.90
22526;DHT22;11429;50.842;4.386;2023-07-13T03:04:59;16.80;99.90
22526;DHT22;11429;50.842;4.386;2023-07-13T03:07:25;16.70;99.90
22526;DHT22;11429;50.842;4.386;2023-07-13T03:10:00;16.70;99.90
22526;DHT22;11429;50.842;4.386;2023-07-13T03:12:25;16.50;99.90
22526;DHT22;11429;50.842;4.386;2023-07-13T03:14:51;16.40;99.90
22526;DHT22;11429;50.842;4.386;2023-07-13T03:17:17;16.50;99.90
22526;DHT22;11429;50.842;4.386;2023-07-13T03:19:42;16.50;99.90
22526;DHT22;11429;50.842;4.386;2023-07-13T03:22:09;16.50;99.90
22526;DHT22;11429;50.842;4.386;2023-07-13T03:24:35;16.50;99.90
22526;DHT22;11429;50.842;4.386;2023-07-13T03:27:05;16.40;99.90
22526;DHT22;11429;50.842;4.386;2023-07-13T03:29:31;16.30;99.90
22526;DHT22;11429;50.842;4.386;2023-07-13T03:31:57;16.30;99.90
22526;DHT22;11429;50.842;4.386;2023-07-13T03:34:22;16.20;99.90
22526;DHT22;11429;50.842;4.386;2023-07-13T03:36:48;16.20;99.90
22526;DHT22;11429;50.842;4.386;2023-07-13T03:39:14;16.30;99.90
22526;DHT22;11429;50.842;4.386;2023-07-13T03:41:39;16.20;99.90
22526;DHT22;11429;50.842;4.386;2023-07-13T03:44:05;16.20;99.90
22526;DHT22;11429;50.842;4.386;2023-07-13T03:46:31;16.20;99.90
22526;DHT22;11429;50.842;4.386;2023-07-13T03:48:57;16.30;99.90
22526;DHT22;11429;50.842;4.386;2023-07-13T03:51:23;16.30;99.90
22526;DHT22;11429;50.842;4.386;2023-07-13T03:53:49;16.40;99.90
22526;DHT22;11429;50.842;4.386;2023-07-13T03:56:17;16.50;99.90
22526;DHT22;11429;50.842;4.386;2023-07-13T03:58:45;16.60;99.90
22526;DHT22;11429;50.842;4.386;2023-07-13T04:01:12;16.80;99.90
22526;DHT22;11429;50.842;4.386;2023-07-13T04:03:38;17.00;99.90
22526;DHT22;11429;50.842;4.386;2023-07-13T04:06:06;16.90;99.90
22526;DHT22;11429;50.842;4.386;2023-07-13T04:08:34;16.90;99.90
22526;DHT22;11429;50.842;4.386;2023-07-13T04:11:01;17.00;99.90
22526;DHT22;11429;50.842;4.386;2023-07-13T04:13:27;17.00;99.90
22526;DHT22;11429;50.842;4.386;2023-07-13T04:15:53;17.20;99.90
22526;DHT22;11429;50.842;4.386;2023-07-13T04:18:20;16.90;99.90
22526;DHT22;11429;50.842;4.386;2023-07-13T04:20:47;17.00;99.90
22526;DHT22;11429;50.842;4.386;2023-07-13T04:23:13;17.10;99.90
22526;DHT22;11429;50.842;4.386;2023-07-13T04:25:39;17.20;99.90
22526;DHT22;11429;50.842;4.386;2023-07-13T04:28:05;17.20;99.90
22526;DHT22;11429;50.842;4.386;2023-07-13T04:30:32;17.10;99.90
22526;DHT22;11429;50.842;4.386;2023-07-13T04:32:58;17.00;99.90
22526;DHT22;11429;50.842;4.386;2023-07-13T04:35:23;16.90;99.90
22526;DHT22;11429;50.842;4.386;2023-07-13T04:37:49;16.90;99.90
22526;DHT22;11429;50.842;4.386;2023-07-13T04:40:19;17.00;99.90
22526;DHT22;11429;50.842;4.386;2023-07-13T04:42:45;17.10;99.90
22526;DHT22;11429;50.842;4.386;2023-07-13T04:45:13;17.10;99.90
22526;DHT22;11429;50.842;4.386;2023-07-13T04:47:39;17.30;99.90
22526;DHT22;11429;50.842;4.386;2023-07-13T04:50:06;17.30;99.90
22526;DHT22;11429;50.842;4.386;2023-07-13T04:52:31;17.20;99.90
22526;DHT22;11429;50.842;4.386;2023-07-13T04:54:58;17.50;99.90
22526;DHT22;11429;50.842;4.386;2023-07-13T04:57:25;17.50;99.90
22526;DHT22;11429;50.842;4.386;2023-07-13T04:59:51;17.40;99.90
22526;DHT22;11429;50.842;4.386;2023-07-13T05:02:17;17.40;99.90
22526;DHT22;11429;50.842;4.386;2023-07-13T05:04:46;17.40;99.90
22526;DHT22;11429;50.842;4.386;2023-07-13T05:07:13;17.40;99.90
22526;DHT22;11429;50.842;4.386;2023-07-13T05:09:38;17.40;99.90
22526;DHT22;11429;50.842;4.386;2023-07-13T05:12:06;17.60;99.90
22526;DHT22;11429;50.842;4.386;2023-07-13T05:14:32;17.50;99.90
22526;DHT22;11429;50.842;4.386;2023-07-13T05:16:58;17.60;99.90
22526;DHT22;11429;50.842;4.386;2023-07-13T05:19:23;17.60;99.90
22526;DHT22;11429;50.842;4.386;2023-07-13T05:21:49;17.60;99.90
22526;DHT22;11429;50.842;4.386;2023-07-13T05:24:15;17.70;99.90
22526;DHT22;11429;50.842;4.386;2023-07-13T05:26:40;17.50;99.90
22526;DHT22;11429;50.842;4.386;2023-07-13T05:29:06;17.60;99.90
22526;DHT22;11429;50.842;4.386;2023-07-13T05:31:32;17.60;99.90
22526;DHT22;11429;50.842;4.386;2023-07-13T05:33:57;17.70;99.90
22526;DHT22;11429;50.842;4.386;2023-07-13T05:36:23;17.80;99.90
22526;DHT22;11429;50.842;4.386;2023-07-13T05:38:49;17.90;99.90
22526;DHT22;11429;50.842;4.386;2023-07-13T05:41:14;17.90;99.90
22526;DHT22;11429;50.842;4.386;2023-07-13T05:43:40;18.00;99.90
22526;DHT22;11429;50.842;4.386;2023-07-13T05:46:06;18.10;99.90
22526;DHT22;11429;50.842;4.386;2023-07-13T05:48:31;18.00;99.90
22526;DHT22;11429;50.842;4.386;2023-07-13T05:50:57;18.10;99.90
22526;DHT22;11429;50.842;4.386;2023-07-13T05:53:23;18.10;99.90
22526;DHT22;11429;50.842;4.386;2023-07-13T05:55:49;18.10;99.90
22526;DHT22;11429;50.842;4.386;2023-07-13T05:58:19;18.20;99.90
22526;DHT22;11429;50.842;4.386;2023-07-13T06:00:45;18.10;99.90
22526;DHT22;11429;50.842;4.386;2023-07-13T06:03:11;18.10;99.90
22526;DHT22;11429;50.842;4.386;2023-07-13T06:05:37;18.30;99.90
22526;DHT22;11429;50.842;4.386;2023-07-13T06:08:03;18.20;99.90
22526;DHT22;11429;50.842;4.386;2023-07-13T06:10:32;18.50;99.90
22526;DHT22;11429;50.842;4.386;2023-07-13T06:12:58;18.20;99.90
22526;DHT22;11429;50.842;4.386;2023-07-13T06:15:23;18.40;99.90
22526;DHT22;11429;50.842;4.386;2023-07-13T06:17:49;18.40;99.90
22526;DHT22;11429;50.842;4.386;2023-07-13T06:20:15;18.40;99.90
22526;DHT22;11429;50.842;4.386;2023-07-13T06:22:40;18.30;99.90
22526;DHT22;11429;50.842;4.386;2023-07-13T06:25:07;18.30;99.90
22526;DHT22;11429;50.842;4.386;2023-07-13T06:27:32;18.50;99.90
22526;DHT22;11429;50.842;4.386;2023-07-13T06:29:58;18.90;99.90
22526;DHT22;11429;50.842;4.386;2023-07-13T06:32:24;19.00;99.90
22526;DHT22;11429;50.842;4.386;2023-07-13T06:34:49;19.10;99.90
22526;DHT22;11429;50.842;4.386;2023-07-13T06:37:17;18.90;99.90
22526;DHT22;11429;50.842;4.386;2023-07-13T06:39:43;19.00;99.90
22526;DHT22;11429;50.842;4.386;2023-07-13T06:42:09;19.20;99.90
22526;DHT22;11429;50.842;4.386;2023-07-13T06:44:34;19.30;99.90
22526;DHT22;11429;50.842;4.386;2023-07-13T06:47:00;19.50;99.90
22526;DHT22;11429;50.842;4.386;2023-07-13T06:49:26;19.50;99.90
22526;DHT22;11429;50.842;4.386;2023-07-13T06:51:52;19.70;99.90
22526;DHT22;11429;50.842;4.386;2023-07-13T06:54:17;20.30;99.90
22526;DHT22;11429;50.842;4.386;2023-07-13T06:56:43;20.10;99.90
22526;DHT22;11429;50.842;4.386;2023-07-13T06:59:09;20.40;99.90
22526;DHT22;11429;50.842;4.386;2023-07-13T07:01:34;20.20;99.90
22526;DHT22;11429;50.842;4.386;2023-07-13T07:04:00;20.30;99.90
22526;DHT22;11429;50.842;4.386;2023-07-13T07:06:26;20.40;99.90
22526;DHT22;11429;50.842;4.386;2023-07-13T07:08:52;20.30;99.90
22526;DHT22;11429;50.842;4.386;2023-07-13T07:11:21;20.30;99.90
22526;DHT22;11429;50.842;4.386;2023-07-13T07:13:51;20.30;99.90
22526;DHT22;11429;50.842;4.386;2023-07-13T07:16:18;20.40;99.90
22526;DHT22;11429;50.842;4.386;2023-07-13T07:18:44;20.50;99.90
22526;DHT22;11429;50.842;4.386;2023-07-13T07:21:10;20.90;99.90
22526;DHT22;11429;50.842;4.386;2023-07-13T07:23:36;21.10;99.90
22526;DHT22;11429;50.842;4.386;2023-07-13T07:26:02;21.60;99.90
22526;DHT22;11429;50.842;4.386;2023-07-13T07:28:28;22.10;99.90
22526;DHT22;11429;50.842;4.386;2023-07-13T07:30:56;22.40;99.90
22526;DHT22;11429;50.842;4.386;2023-07-13T07:33:23;22.50;99.90
22526;DHT22;11429;50.842;4.386;2023-07-13T07:35:49;23.40;99.90
22526;DHT22;11429;50.842;4.386;2023-07-13T07:38:15;25.10;99.90
22526;DHT22;11429;50.842;4.386;2023-07-13T07:40:42;26.50;99.90
22526;DHT22;11429;50.842;4.386;2023-07-13T07:43:08;26.60;99.90
22526;DHT22;11429;50.842;4.386;2023-07-13T07:45:34;26.10;99.90
22526;DHT22;11429;50.842;4.386;2023-07-13T07:48:01;26.70;99.90
22526;DHT22;11429;50.842;4.386;2023-07-13T07:50:27;26.00;99.90
22526;DHT22;11429;50.842;4.386;2023-07-13T07:52:53;25.50;99.90
22526;DHT22;11429;50.842;4.386;2023-07-13T07:55:19;25.20;99.90
22526;DHT22;11429;50.842;4.386;2023-07-13T07:57:45;25.20;99.90
22526;DHT22;11429;50.842;4.386;2023-07-13T08:00:11;25.90;99.90
22526;DHT22;11429;50.842;4.386;2023-07-13T08:02:36;27.30;99.90
22526;DHT22;11429;50.842;4.386;2023-07-13T08:05:02;28.80;99.90
22526;DHT22;11429;50.842;4.386;2023-07-13T08:07:30;28.30;99.90
22526;DHT22;11429;50.842;4.386;2023-07-13T08:09:56;26.90;99.90
22526;DHT22;11429;50.842;4.386;2023-07-13T08:12:22;25.80;99.90
22526;DHT22;11429;50.842;4.386;2023-07-13T08:14:50;25.40;99.90
22526;DHT22;11429;50.842;4.386;2023-07-13T08:17:19;25.30;99.90
22526;DHT22;11429;50.842;4.386;2023-07-13T08:19:45;24.90;99.90
22526;DHT22;11429;50.842;4.386;2023-07-13T08:22:11;25.40;99.90
22526;DHT22;11429;50.842;4.386;2023-07-13T08:24:37;24.50;99.90
22526;DHT22;11429;50.842;4.386;2023-07-13T08:27:03;23.80;99.90
22526;DHT22;11429;50.842;4.386;2023-07-13T08:29:28;23.60;99.90
22526;DHT22;11429;50.842;4.386;2023-07-13T08:31:57;23.00;99.90
22526;DHT22;11429;50.842;4.386;2023-07-13T08:34:23;23.30;99.90
22526;DHT22;11429;50.842;4.386;2023-07-13T08:36:49;23.60;99.90
22526;DHT22;11429;50.842;4.386;2023-07-13T08:39:14;23.40;99.90
22526;DHT22;11429;50.842;4.386;2023-07-13T08:41:40;23.30;99.90
22526;DHT22;11429;50.842;4.386;2023-07-13T08:44:16;23.50;99.90
22526;DHT22;11429;50.842;4.386;2023-07-13T08:46:45;23.40;99.90
22526;DHT22;11429;50.842;4.386;2023-07-13T08:49:15;23.90;99.90
22526;DHT22;11429;50.842;4.386;2023-07-13T08:51:51;25.10;99.90
22526;DHT22;11429;50.842;4.386;2023-07-13T08:54:27;25.80;99.90
22526;DHT22;11429;50.842;4.386;2023-07-13T08:56:54;27.10;99.90
22526;DHT22;11429;50.842;4.386;2023-07-13T08:59:27;27.10;99.90
22526;DHT22;11429;50.842;4.386;2023-07-13T09:05:03;29.50;99.90
22526;DHT22;11429;50.842;4.386;2023-07-13T09:13:39;27.80;99.90
22526;DHT22;11429;50.842;4.386;2023-07-13T09:15:47;28.30;99.90
22526;DHT22;11429;50.842;4.386;2023-07-13T09:20:50;28.90;99.90
22526;DHT22;11429;50.842;4.386;2023-07-13T09:23:22;28.90;99.90
22526;DHT22;11429;50.842;4.386;2023-07-13T09:25:49;29.40;99.90
22526;DHT22;11429;50.842;4.386;2023-07-13T09:28:26;29.20;99.90
22526;DHT22;11429;50.842;4.386;2023-07-13T09:31:16;29.10;99.90
22526;DHT22;11429;50.842;4.386;2023-07-13T09:33:42;30.20;99.90
22526;DHT22;11429;50.842;4.386;2023-07-13T09:36:24;28.40;99.90
22526;DHT22;11429;50.842;4.386;2023-07-13T09:39:04;28.50;99.90
22526;DHT22;11429;50.842;4.386;2023-07-13T09:47:27;25.90;99.90
22526;DHT22;11429;50.842;4.386;2023-07-13T09:49:59;25.30;99.90
22526;DHT22;11429;50.842;4.386;2023-07-13T09:52:26;25.80;99.90
22526;DHT22;11429;50.842;4.386;2023-07-13T09:54:54;26.50;99.90
22526;DHT22;11429;50.842;4.386;2023-07-13T09:57:26;27.70;99.90
22526;DHT22;11429;50.842;4.386;2023-07-13T09:59:54;28.50;99.90
22526;DHT22;11429;50.842;4.386;2023-07-13T10:02:34;28.90;99.90
22526;DHT22;11429;50.842;4.386;2023-07-13T10:05:13;29.20;99.90
22526;DHT22;11429;50.842;4.386;2023-07-13T10:07:40;29.60;99.90
22526;DHT22;11429;50.842;4.386;2023-07-13T10:10:21;29.50;99.90
22526;DHT22;11429;50.842;4.386;2023-07-13T10:12:48;28.80;99.90
22526;DHT22;11429;50.842;4.386;2023-07-13T10:15:20;28.60;99.90
22526;DHT22;11429;50.842;4.386;2023-07-13T10:17:47;29.10;99.90
22526;DHT22;11429;50.842;4.386;2023-07-13T10:20:14;29.00;99.90
22526;DHT22;11429;50.842;4.386;2023-07-13T10:22:54;29.20;99.90
22526;DHT22;11429;50.842;4.386;2023-07-13T10:25:25;29.80;99.90
22526;DHT22;11429;50.842;4.386;2023-07-13T10:27:54;29.80;99.90
22526;DHT22;11429;50.842;4.386;2023-07-13T10:30:22;29.30;99.90
22526;DHT22;11429;50.842;4.386;2023-07-13T10:32:51;27.60;99.90
22526;DHT22;11429;50.842;4.386;2023-07-13T10:35:20;27.40;99.90
22526;DHT22;11429;50.842;4.386;2023-07-13T10:38:38;26.50;99.90
22526;DHT22;11429;50.842;4.386;2023-07-13T10:41:06;26.70;99.90
22526;DHT22;11429;50.842;4.386;2023-07-13T10:43:43;27.80;99.90
22526;DHT22;11429;50.842;4.386;2023-07-13T10:46:13;28.10;99.90
22526;DHT22;11429;50.842;4.386;2023-07-13T10:48:41;27.10;99.90
22526;DHT22;11429;50.842;4.386;2023-07-13T10:51:08;26.10;99.90
22526;DHT22;11429;50.842;4.386;2023-07-13T10:53:37;25.60;99.90
22526;DHT22;11429;50.842;4.386;2023-07-13T10:56:22;24.90;99.90
22526;DHT22;11429;50.842;4.386;2023-07-13T11:02:17;25.40;99.90
22526;DHT22;11429;50.842;4.386;2023-07-13T11:04:46;25.30;99.90
22526;DHT22;11429;50.842;4.386;2023-07-13T11:10:03;26.50;99.90
22526;DHT22;11429;50.842;4.386;2023-07-13T11:12:49;26.90;99.90
22526;DHT22;11429;50.842;4.386;2023-07-13T11:15:28;27.10;99.90
22526;DHT22;11429;50.842;4.386;2023-07-13T11:17:55;26.80;99.90
22526;DHT22;11429;50.842;4.386;2023-07-13T11:20:51;26.90;99.90
22526;DHT22;11429;50.842;4.386;2023-07-13T11:23:27;27.00;99.90
22526;DHT22;11429;50.842;4.386;2023-07-13T11:25:53;27.10;99.90
22526;DHT22;11429;50.842;4.386;2023-07-13T11:28:23;26.60;99.90
22526;DHT22;11429;50.842;4.386;2023-07-13T11:31:01;27.00;99.90
22526;DHT22;11429;50.842;4.386;2023-07-13T11:36:05;27.70;99.90
22526;DHT22;11429;50.842;4.386;2023-07-13T11:38:38;26.70;99.90
22526;DHT22;11429;50.842;4.386;2023-07-13T11:41:31;26.10;99.90
22526;DHT22;11429;50.842;4.386;2023-07-13T11:44:15;25.90;99.90
22526;DHT22;11429;50.842;4.386;2023-07-13T11:46:50;25.10;99.90
22526;DHT22;11429;50.842;4.386;2023-07-13T11:49:22;24.70;99.90
22526;DHT22;11429;50.842;4.386;2023-07-13T11:51:48;24.70;99.90
22526;DHT22;11429;50.842;4.386;2023-07-13T11:54:27;25.10;99.90
22526;DHT22;11429;50.842;4.386;2023-07-13T11:56:57;24.60;99.90
22526;DHT22;11429;50.842;4.386;2023-07-13T11:59:26;24.80;99.90
22526;DHT22;11429;50.842;4.386;2023-07-13T12:01:54;24.60;99.90
22526;DHT22;11429;50.842;4.386;2023-07-13T12:04:32;24.10;99.90
22526;DHT22;11429;50.842;4.386;2023-07-13T12:07:04;23.60;99.90
22526;DHT22;11429;50.842;4.386;2023-07-13T12:09:32;23.60;99.90
22526;DHT22;11429;50.842;4.386;2023-07-13T12:11:58;23.60;99.90
22526;DHT22;11429;50.842;4.386;2023-07-13T12:14:26;23.50;99.90
22526;DHT22;11429;50.842;4.386;2023-07-13T12:16:52;23.80;99.90
22526;DHT22;11429;50.842;4.386;2023-07-13T12:19:25;23.90;99.90
22526;DHT22;11429;50.842;4.386;2023-07-13T12:21:54;23.80;99.90
22526;DHT22;11429;50.842;4.386;2023-07-13T12:24:22;23.80;99.90
22526;DHT22;11429;50.842;4.386;2023-07-13T12:26:59;23.90;99.90
22526;DHT22;11429;50.842;4.386;2023-07-13T12:29:26;24.20;99.90
22526;DHT22;11429;50.842;4.386;2023-07-13T12:31:52;24.00;99.90
22526;DHT22;11429;50.842;4.386;2023-07-13T12:34:23;23.70;99.90
22526;DHT22;11429;50.842;4.386;2023-07-13T12:37:00;23.30;99.90
22526;DHT22;11429;50.842;4.386;2023-07-13T12:39:33;22.90;99.90
22526;DHT22;11429;50.842;4.386;2023-07-13T12:42:25;22.20;99.90
22526;DHT22;11429;50.842;4.386;2023-07-13T12:45:18;21.80;99.90
22526;DHT22;11429;50.842;4.386;2023-07-13T12:47:48;21.20;99.90
22526;DHT22;11429;50.842;4.386;2023-07-13T12:50:23;20.80;99.90
22526;DHT22;11429;50.842;4.386;2023-07-13T12:52:54;20.80;99.90
22526;DHT22;11429;50.842;4.386;2023-07-13T12:55:22;20.70;99.90
22526;DHT22;11429;50.842;4.386;2023-07-13T12:57:53;20.80;99.90
22526;DHT22;11429;50.842;4.386;2023-07-13T13:00:36;20.60;99.90
22526;DHT22;11429;50.842;4.386;2023-07-13T13:08:41;20.10;99.90
22526;DHT22;11429;50.842;4.386;2023-07-13T13:11:09;20.20;99.90
22526;DHT22;11429;50.842;4.386;2023-07-13T13:13:35;20.30;99.90
22526;DHT22;11429;50.842;4.386;2023-07-13T13:16:24;20.50;99.90
22526;DHT22;11429;50.842;4.386;2023-07-13T13:18:57;21.10;99.90
22526;DHT22;11429;50.842;4.386;2023-07-13T13:21:25;21.30;99.90
22526;DHT22;11429;50.842;4.386;2023-07-13T13:23:52;21.20;99.90
22526;DHT22;11429;50.842;4.386;2023-07-13T13:26:19;21.10;99.90
22526;DHT22;11429;50.842;4.386;2023-07-13T13:28:46;21.30;99.90
22526;DHT22;11429;50.842;4.386;2023-07-13T13:31:13;21.60;99.90
22526;DHT22;11429;50.842;4.386;2023-07-13T13:33:41;21.50;99.90
22526;DHT22;11429;50.842;4.386;2023-07-13T13:36:17;21.50;99.90
22526;DHT22;11429;50.842;4.386;2023-07-13T13:38:43;22.10;99.90
22526;DHT22;11429;50.842;4.386;2023-07-13T13:41:10;22.30;99.90
22526;DHT22;11429;50.842;4.386;2023-07-13T13:43:36;23.00;99.90
22526;DHT22;11429;50.842;4.386;2023-07-13T13:46:09;23.60;99.90
22526;DHT22;11429;50.842;4.386;2023-07-13T13:48:36;24.20;99.90
22526;DHT22;11429;50.842;4.386;2023-07-13T13:51:13;23.70;99.90
22526;DHT22;11429;50.842;4.386;2023-07-13T13:53:39;23.70;99.90
22526;DHT22;11429;50.842;4.386;2023-07-13T13:56:05;22.90;99.90
22526;DHT22;11429;50.842;4.386;2023-07-13T13:58:31;22.70;99.90
22526;DHT22;11429;50.842;4.386;2023-07-13T14:00:57;22.70;99.90
22526;DHT22;11429;50.842;4.386;2023-07-13T14:03:23;22.80;99.90
22526;DHT22;11429;50.842;4.386;2023-07-13T14:05:49;23.20;99.90
22526;DHT22;11429;50.842;4.386;2023-07-13T14:08:18;23.10;99.90
22526;DHT22;11429;50.842;4.386;2023-07-13T14:10:51;23.20;99.90
22526;DHT22;11429;50.842;4.386;2023-07-13T14:13:40;23.20;99.90
22526;DHT22;11429;50.842;4.386;2023-07-13T14:16:21;23.10;99.90
22526;DHT22;11429;50.842;4.386;2023-07-13T14:18:48;23.20;99.90
22526;DHT22;11429;50.842;4.386;2023-07-13T14:21:16;23.30;99.90
22526;DHT22;11429;50.842;4.386;2023-07-13T14:23:44;23.20;99.90
22526;DHT22;11429;50.842;4.386;2023-07-13T14:26:30;23.10;99.90
22526;DHT22;11429;50.842;4.386;2023-07-13T14:28:57;23.20;99.90
22526;DHT22;11429;50.842;4.386;2023-07-13T14:31:26;23.20;99.90
22526;DHT22;11429;50.842;4.386;2023-07-13T14:33:54;23.00;99.90
22526;DHT22;11429;50.842;4.386;2023-07-13T14:36:35;22.90;99.90
22526;DHT22;11429;50.842;4.386;2023-07-13T14:39:27;22.90;99.90
22526;DHT22;11429;50.842;4.386;2023-07-13T14:41:55;22.90;99.90
22526;DHT22;11429;50.842;4.386;2023-07-13T14:44:26;23.00;99.90
22526;DHT22;11429;50.842;4.386;2023-07-13T14:46:54;23.10;99.90
22526;DHT22;11429;50.842;4.386;2023-07-13T14:49:34;23.10;99.90
22526;DHT22;11429;50.842;4.386;2023-07-13T14:52:14;23.40;99.90
22526;DHT22;11429;50.842;4.386;2023-07-13T14:54:41;23.20;99.90
22526;DHT22;11429;50.842;4.386;2023-07-13T14:57:19;23.10;99.90
22526;DHT22;11429;50.842;4.386;2023-07-13T14:59:45;23.00;99.90
22526;DHT22;11429;50.842;4.386;2023-07-13T15:04:51;22.90;99.90
22526;DHT22;11429;50.842;4.386;2023-07-13T15:07:17;22.70;99.90
22526;DHT22;11429;50.842;4.386;2023-07-13T15:09:44;22.60;99.90
22526;DHT22;11429;50.842;4.386;2023-07-13T15:12:10;22.30;99.90
22526;DHT22;11429;50.842;4.386;2023-07-13T15:14:36;22.40;99.90
22526;DHT22;11429;50.842;4.386;2023-07-13T15:17:01;22.70;99.90
22526;DHT22;11429;50.842;4.386;2023-07-13T15:19:27;22.80;99.90
22526;DHT22;11429;50.842;4.386;2023-07-13T15:21:54;22.90;99.90
22526;DHT22;11429;50.842;4.386;2023-07-13T15:24:23;22.90;99.90
22526;DHT22;11429;50.842;4.386;2023-07-13T15:26:49;22.90;99.90
22526;DHT22;11429;50.842;4.386;2023-07-13T15:29:15;22.90;99.90
22526;DHT22;11429;50.842;4.386;2023-07-13T15:31:41;23.10;99.90
22526;DHT22;11429;50.842;4.386;2023-07-13T15:34:16;23.40;99.90
22526;DHT22;11429;50.842;4.386;2023-07-13T15:36:44;23.40;99.90
22526;DHT22;11429;50.842;4.386;2023-07-13T15:39:14;23.50;99.90
22526;DHT22;11429;50.842;4.386;2023-07-13T15:41:44;23.60;99.90
22526;DHT22;11429;50.842;4.386;2023-07-13T15:46:51;23.40;99.90
22526;DHT22;11429;50.842;4.386;2023-07-13T15:49:17;23.50;99.90
22526;DHT22;11429;50.842;4.386;2023-07-13T15:51:43;23.50;99.90
22526;DHT22;11429;50.842;4.386;2023-07-13T15:54:13;23.50;99.90
22526;DHT22;11429;50.842;4.386;2023-07-13T15:56:39;23.30;99.90
22526;DHT22;11429;50.842;4.386;2023-07-13T15:59:09;23.20;99.90
22526;DHT22;11429;50.842;4.386;2023-07-13T16:01:38;23.10;99.90
22526;DHT22;11429;50.842;4.386;2023-07-13T16:04:04;23.20;99.90
22526;DHT22;11429;50.842;4.386;2023-07-13T16:06:36;23.20;99.90
22526;DHT22;11429;50.842;4.386;2023-07-13T16:09:03;23.50;99.90
22526;DHT22;11429;50.842;4.386;2023-07-13T16:11:37;23.70;99.90
22526;DHT22;11429;50.842;4.386;2023-07-13T16:14:03;23.90;99.90
22526;DHT22;11429;50.842;4.386;2023-07-13T16:16:32;24.00;99.90